NCAR-RAP Real-Time Weather Data

Output produced by METARs form (17 September 2019  16:46 UTC)
found at http://weather.rap.ucar.edu/surface/
 
KRST 171554Z 16018G24KT 10SM CLR 26/18 A3006 RMK AO2 SLP173 T02560178
KRST 171454Z 17013G21KT 10SM CLR 23/16 A3008 RMK AO2 SLP181 T02280161 50001
KRST 171354Z 16012G22KT 10SM CLR 21/16 A3009 RMK AO2 SLP183 T02110156
KRST 171254Z 16012KT 10SM CLR 19/15 A3009 RMK AO2 SLP184 T01940150
KRST 171154Z 15011KT 10SM CLR 18/15 A3008 RMK AO2 SLP181 T01830150 10206 20183 53006
KRST 171054Z 16010KT 10SM CLR 19/15 A3008 RMK AO2 SLP178 T01890150
KRST 170954Z AUTO 16012G18KT 10SM CLR 19/15 A3007 RMK AO2 SLP174 T01940150
KRST 170854Z AUTO 16010KT 10SM CLR 20/16 A3006 RMK AO2 SLP172 T02000156 51002
KRST 170754Z AUTO 17009KT 10SM CLR 20/17 A3006 RMK AO2 SLP173 T02000167
KRST 170654Z AUTO 17010KT 10SM CLR 20/17 A3006 RMK AO2 SLP172 T02000167
KRST 170554Z AUTO 17011KT 10SM CLR 21/17 A3006 RMK AO2 SLP170 T02060167 10239 20206 402890144 58003
KRST 170454Z AUTO 17011KT 10SM CLR 21/17 A3006 RMK AO2 SLP172 T02110172
KRST 170354Z 17011KT 10SM CLR 22/17 A3006 RMK AO2 SLP172 T02170172
KRST 170254Z 16010KT 10SM CLR 22/17 A3007 RMK AO2 SLP175 T02170172 53006
KRST 170054Z 16009KT 10SM CLR 23/18 A3005 RMK AO2 SLP172 T02280178
KRST 162354Z 16009KT 10SM CLR 24/18 A3005 RMK AO2 SLP171 T02390183 10289 20239 53001
KRST 162254Z 15008KT 10SM CLR 26/19 A3005 RMK AO2 SLP169 T02610194
KRST 162154Z 16010KT 10SM CLR 26/18 A3005 RMK AO2 SLP170 T02610178
KRST 162054Z 16013KT 10SM CLR 27/16 A3005 RMK AO2 SLP168 T02720161 56014
KRST 161954Z 17010G17KT 10SM CLR 27/17 A3006 RMK AO2 SLP175 T02670172